Time;durP1;ratioP1;P1;durP2;ratioP2;P2;SDS_P1;SDS_P2;PMS_P1;PMS_P2;Temp;Humidity;BMP_temperature;BMP_pressure;BME280_temperature;BME280_humidity;BME280_pressure;Samples;Min_cycle;Max_cycle;Signal;HPM_P1;HPM_P2
2022/01/20 00:00:21;;;;;;;19.97;6.17;;;7.20;99.90;;;;;;5048669;28;20430;-84
2022/01/20 00:02:58;;;;;;;14.00;5.70;;;7.20;99.90;;;;;;5020560;28;20550;-83
2022/01/20 00:27:08;;;;;;;16.33;5.33;;;6.90;99.90;;;;;;5040405;28;20450;-84
2022/01/20 00:30:06;;;;;;;18.20;6.20;;;6.90;99.90;;;;;;5035050;28;20462;-85
2022/01/20 00:32:30;;;;;;;17.00;5.67;;;6.80;99.90;;;;;;5035309;28;20477;-85
2022/01/20 00:37:26;;;;;;;17.03;5.10;;;6.80;99.90;;;;;;5040441;28;20457;-85
2022/01/20 00:39:54;;;;;;;23.90;7.00;;;6.70;99.90;;;;;;5040893;28;20450;-84
2022/01/20 00:42:22;;;;;;;15.00;5.10;;;6.70;99.90;;;;;;5042607;28;20461;-84
2022/01/20 00:44:49;;;;;;;18.87;5.80;;;6.70;99.90;;;;;;5034751;28;20479;-83
2022/01/20 00:47:17;;;;;;;25.30;4.80;;;6.60;99.90;;;;;;5021776;28;20465;-84
2022/01/20 00:49:45;;;;;;;19.63;5.53;;;6.60;99.90;;;;;;5021115;28;20816;-84
2022/01/20 00:52:14;;;;;;;21.13;6.03;;;6.60;99.90;;;;;;5029209;28;20538;-84
2022/01/20 00:54:41;;;;;;;18.03;5.73;;;6.60;99.90;;;;;;5034177;28;20486;-83
2022/01/20 00:57:08;;;;;;;14.47;5.20;;;6.50;99.90;;;;;;5021316;28;20457;-85
2022/01/20 00:59:35;;;;;;;13.53;4.63;;;6.50;99.90;;;;;;5038452;28;20936;-84
2022/01/20 01:02:06;;;;;;;17.53;4.83;;;6.50;99.90;;;;;;5019425;28;20458;-82
2022/01/20 01:04:33;;;;;;;21.10;5.97;;;6.50;99.90;;;;;;5029457;28;20489;-83
2022/01/20 01:07:48;;;;;;;15.30;5.00;;;6.50;99.90;;;;;;5020160;28;20509;-83
2022/01/20 01:09:48;;;;;;;15.83;5.23;;;6.50;99.90;;;;;;5012664;28;20454;-83
2022/01/20 01:12:23;;;;;;;16.40;5.80;;;6.40;99.90;;;;;;5019560;28;20585;-83
2022/01/20 01:14:52;;;;;;;18.40;5.10;;;6.40;99.90;;;;;;5028148;28;20503;-84
2022/01/20 01:20:13;;;;;;;19.30;5.33;;;6.40;99.90;;;;;;5042370;28;20476;-84
2022/01/20 01:22:40;;;;;;;20.83;5.73;;;6.40;99.90;;;;;;5055187;28;20469;-85
2022/01/20 01:25:07;;;;;;;22.20;5.07;;;6.40;99.90;;;;;;5028704;28;20554;-83
2022/01/20 01:27:40;;;;;;;19.30;5.00;;;6.30;99.90;;;;;;5032778;28;20450;-84
2022/01/20 01:30:35;;;;;;;12.83;4.70;;;6.40;99.90;;;;;;5042387;28;20469;-84
2022/01/20 01:32:58;;;;;;;20.23;4.87;;;6.30;99.90;;;;;;5039024;28;20489;-82
2022/01/20 01:35:27;;;;;;;12.53;4.60;;;6.30;99.90;;;;;;5042254;28;20479;-84
2022/01/20 01:40:25;;;;;;;16.60;4.57;;;6.30;99.90;;;;;;5037418;28;20446;-85
2022/01/20 01:42:53;;;;;;;17.27;4.83;;;6.30;99.90;;;;;;5018958;28;20446;-81
2022/01/20 01:45:35;;;;;;;13.00;5.23;;;6.30;99.90;;;;;;5018488;28;20530;-84
2022/01/20 01:48:04;;;;;;;14.50;4.10;;;6.30;99.90;;;;;;5018671;28;20459;-83
2022/01/20 01:50:32;;;;;;;20.37;5.60;;;6.30;99.90;;;;;;5019020;28;20455;-83
2022/01/20 01:53:03;;;;;;;20.63;5.50;;;6.30;99.90;;;;;;5037897;28;20549;-83
2022/01/20 01:55:31;;;;;;;14.53;4.00;;;6.30;99.90;;;;;;5039299;28;20441;-84
2022/01/20 01:57:57;;;;;;;15.53;5.20;;;6.30;99.90;;;;;;5037461;28;20470;-83
2022/01/20 02:00:24;;;;;;;20.13;5.20;;;6.20;99.90;;;;;;5052923;28;20448;-83
2022/01/20 02:02:51;;;;;;;16.30;5.43;;;6.20;99.90;;;;;;5036336;28;20465;-84
2022/01/20 02:05:19;;;;;;;10.47;5.07;;;6.30;99.90;;;;;;5016297;28;20480;-84
2022/01/20 02:18:52;;;;;;;16.43;5.73;;;6.30;99.90;;;;;;5038748;28;20453;-84
2022/01/20 02:21:19;;;;;;;14.43;5.37;;;6.30;99.90;;;;;;5031436;28;20544;-84
2022/01/20 02:23:47;;;;;;;12.90;4.70;;;6.30;99.90;;;;;;5017356;28;20995;-85
2022/01/20 02:26:14;;;;;;;10.30;5.20;;;6.30;99.90;;;;;;5033824;28;20466;-83
2022/01/20 02:28:41;;;;;;;11.07;5.23;;;6.30;99.90;;;;;;5030100;28;20840;-84
2022/01/20 02:31:08;;;;;;;14.67;5.07;;;6.30;99.90;;;;;;5021957;28;20446;-85
2022/01/20 02:33:35;;;;;;;18.47;4.87;;;6.30;99.90;;;;;;5020926;28;20486;-83
2022/01/20 02:36:09;;;;;;;15.27;4.83;;;6.30;99.90;;;;;;5021415;28;20954;-85
2022/01/20 02:38:52;;;;;;;10.23;4.80;;;6.30;99.90;;;;;;5044350;28;20451;-85
2022/01/20 02:47:01;;;;;;;8.47;3.73;;;6.30;99.90;;;;;;5024083;28;20522;-85
2022/01/20 02:49:28;;;;;;;13.80;4.40;;;6.30;99.90;;;;;;5038556;28;20457;-86
2022/01/20 02:51:56;;;;;;;14.83;5.73;;;6.30;99.90;;;;;;5022696;28;20471;-86
2022/01/20 02:54:23;;;;;;;12.80;3.33;;;6.30;99.90;;;;;;5023388;28;20485;-86
2022/01/20 02:56:50;;;;;;;17.37;4.80;;;6.30;99.90;;;;;;5023630;28;20533;-85
2022/01/20 02:59:17;;;;;;;18.63;4.50;;;6.30;99.90;;;;;;5024003;28;21172;-84
2022/01/20 03:01:44;;;;;;;14.70;4.30;;;6.30;99.90;;;;;;5023031;28;20451;-84
2022/01/20 03:04:13;;;;;;;11.47;4.20;;;6.30;99.90;;;;;;5034218;28;20494;-85
2022/01/20 03:06:40;;;;;;;18.20;5.40;;;6.30;99.90;;;;;;5024211;28;20465;-87
2022/01/20 03:09:07;;;;;;;19.40;4.43;;;6.20;99.90;;;;;;5023963;28;21008;-86
2022/01/20 03:11:34;;;;;;;9.13;4.27;;;6.30;99.90;;;;;;5021969;28;20451;-83
2022/01/20 03:14:01;;;;;;;13.70;4.30;;;6.30;99.90;;;;;;5033556;28;20521;-84
2022/01/20 03:16:28;;;;;;;14.23;3.73;;;6.30;99.90;;;;;;5038879;28;20566;-86
2022/01/20 03:18:55;;;;;;;12.47;3.87;;;6.30;99.90;;;;;;5042555;28;21178;-85
2022/01/20 03:21:22;;;;;;;18.30;4.87;;;6.30;99.90;;;;;;5042328;28;20445;-85
2022/01/20 03:23:48;;;;;;;11.53;3.20;;;6.30;99.90;;;;;;5031194;28;20489;-87
2022/01/20 03:26:15;;;;;;;12.60;3.33;;;6.30;99.90;;;;;;5020520;28;20453;-84
2022/01/20 03:28:42;;;;;;;10.53;4.20;;;6.30;99.90;;;;;;5038370;28;20985;-85
2022/01/20 03:31:09;;;;;;;11.77;3.10;;;6.30;99.90;;;;;;5034783;28;20482;-84
2022/01/20 03:33:36;;;;;;;8.30;3.30;;;6.20;99.90;;;;;;5020464;28;20494;-85
2022/01/20 03:36:03;;;;;;;14.47;3.23;;;6.20;99.90;;;;;;5035322;28;20458;-85
2022/01/20 03:38:30;;;;;;;18.03;3.60;;;6.20;99.90;;;;;;5031638;28;20453;-86
2022/01/20 03:40:57;;;;;;;13.90;3.37;;;6.20;99.90;;;;;;5036089;28;20466;-86
2022/01/20 03:43:24;;;;;;;10.83;3.27;;;6.20;99.90;;;;;;5025830;28;20582;-85
2022/01/20 03:45:55;;;;;;;14.33;3.30;;;6.20;99.90;;;;;;5027669;28;20446;-85
2022/01/20 03:48:26;;;;;;;6.90;2.53;;;6.10;99.90;;;;;;5041812;28;20488;-85
2022/01/20 03:51:02;;;;;;;6.73;2.60;;;6.10;99.90;;;;;;5039629;28;20442;-85
2022/01/20 03:53:32;;;;;;;11.40;3.63;;;6.20;99.90;;;;;;5036864;28;20508;-85
2022/01/20 03:55:59;;;;;;;11.40;3.10;;;6.10;99.90;;;;;;5039816;28;20454;-83
2022/01/20 03:58:26;;;;;;;6.33;2.70;;;6.10;99.90;;;;;;5038563;28;20441;-85
2022/01/20 04:00:53;;;;;;;13.37;3.13;;;6.10;99.90;;;;;;5039234;28;20430;-84
2022/01/20 04:03:21;;;;;;;12.37;3.30;;;6.10;99.90;;;;;;5035901;28;20494;-85
2022/01/20 04:06:05;;;;;;;9.37;2.43;;;6.10;99.90;;;;;;5030317;28;20453;-86
2022/01/20 04:08:44;;;;;;;9.60;2.70;;;6.10;99.90;;;;;;5046701;28;20453;-85
2022/01/20 04:11:17;;;;;;;10.50;2.47;;;6.20;99.90;;;;;;5032877;28;20478;-85
2022/01/20 04:13:44;;;;;;;9.30;2.37;;;6.20;99.90;;;;;;5035829;28;20982;-84
2022/01/20 04:16:38;;;;;;;10.80;2.30;;;6.20;99.90;;;;;;5037226;28;20553;-85
2022/01/20 04:19:10;;;;;;;6.30;2.20;;;6.20;99.90;;;;;;5037904;28;20453;-84
2022/01/20 04:21:38;;;;;;;7.30;1.93;;;6.20;99.90;;;;;;5037222;28;20446;-85
2022/01/20 04:24:06;;;;;;;10.43;3.13;;;6.10;99.90;;;;;;5017179;28;20850;-84
2022/01/20 04:26:35;;;;;;;11.80;2.40;;;6.10;99.90;;;;;;5016706;28;20514;-84
2022/01/20 04:29:04;;;;;;;5.83;2.27;;;6.00;99.90;;;;;;5034516;28;20456;-85
2022/01/20 04:31:31;;;;;;;9.47;3.67;;;6.00;99.90;;;;;;5035267;28;20457;-84
2022/01/20 04:33:59;;;;;;;11.23;2.90;;;6.00;99.90;;;;;;5031871;28;20547;-84
2022/01/20 04:36:27;;;;;;;8.43;2.37;;;6.00;99.90;;;;;;5034779;28;20451;-86
2022/01/20 04:38:54;;;;;;;8.83;1.93;;;6.00;99.90;;;;;;5037876;28;20977;-85
2022/01/20 04:41:22;;;;;;;6.83;2.30;;;6.00;99.90;;;;;;5021748;28;20466;-85
2022/01/20 04:43:49;;;;;;;6.77;2.47;;;6.00;99.90;;;;;;5024336;28;20529;-85
2022/01/20 04:46:35;;;;;;;9.30;2.57;;;6.00;99.90;;;;;;5035559;28;20516;-82
2022/01/20 04:56:59;;;;;;;11.17;2.87;;;6.00;99.90;;;;;;5050613;28;20973;-85
2022/01/20 04:57:24;;;;;;;12.53;2.73;;;6.00;99.90;;;;;;5020290;28;20462;-86
2022/01/20 04:59:53;;;;;;;8.07;3.23;;;6.00;99.90;;;;;;5019299;28;20452;-85
2022/01/20 05:02:23;;;;;;;7.77;3.23;;;6.10;99.90;;;;;;5018615;28;20495;-86
2022/01/20 05:04:49;;;;;;;10.30;2.70;;;6.10;99.90;;;;;;5018449;28;20494;-85
2022/01/20 05:07:23;;;;;;;9.70;3.03;;;6.10;99.90;;;;;;5013494;28;20482;-85
2022/01/20 05:09:51;;;;;;;9.83;3.07;;;6.10;99.90;;;;;;5014919;28;20441;-85
2022/01/20 05:12:24;;;;;;;7.70;2.33;;;6.10;99.90;;;;;;5025552;28;20469;-84
2022/01/20 05:14:51;;;;;;;10.07;3.40;;;6.10;99.90;;;;;;5028301;28;20555;-85
2022/01/20 05:17:17;;;;;;;9.40;2.63;;;6.10;99.90;;;;;;5038505;28;20446;-86
2022/01/20 05:19:44;;;;;;;9.53;2.40;;;6.00;99.90;;;;;;5028928;28;20623;-84
2022/01/20 05:22:12;;;;;;;9.70;3.53;;;6.10;99.90;;;;;;5018445;28;20446;-86
2022/01/20 05:24:39;;;;;;;5.70;2.27;;;6.10;99.90;;;;;;5034048;28;20476;-86
2022/01/20 05:27:05;;;;;;;16.37;3.17;;;6.00;99.90;;;;;;5055147;28;20516;-83
2022/01/20 05:29:32;;;;;;;8.67;2.63;;;6.10;99.90;;;;;;5046962;28;20449;-86
2022/01/20 05:31:59;;;;;;;7.70;2.40;;;6.10;99.90;;;;;;5045314;28;20469;-85
2022/01/20 05:34:25;;;;;;;11.83;2.53;;;6.10;99.90;;;;;;5036509;28;20545;-85
2022/01/20 05:36:52;;;;;;;16.77;2.60;;;6.10;99.90;;;;;;5027211;28;20479;-83
2022/01/20 05:39:19;;;;;;;9.80;2.50;;;6.10;99.90;;;;;;5035169;28;20468;-83
2022/01/20 05:41:46;;;;;;;6.33;2.60;;;6.10;99.90;;;;;;5040785;28;20468;-84
2022/01/20 05:44:12;;;;;;;9.23;2.80;;;6.20;99.90;;;;;;5042040;28;20546;-84
2022/01/20 05:46:46;;;;;;;8.90;2.80;;;6.20;99.90;;;;;;5055402;28;20634;-85
2022/01/20 05:49:20;;;;;;;14.13;3.33;;;6.20;99.90;;;;;;5055108;28;20453;-84
2022/01/20 05:51:49;;;;;;;12.37;3.20;;;6.20;99.90;;;;;;5055621;28;20441;-86
2022/01/20 05:54:16;;;;;;;9.97;3.40;;;6.20;99.90;;;;;;5051339;28;20496;-83
2022/01/20 05:56:43;;;;;;;6.23;2.87;;;6.10;99.90;;;;;;5037892;28;20456;-84
2022/01/20 05:59:10;;;;;;;9.47;2.73;;;6.10;99.90;;;;;;5054561;28;20442;-86
2022/01/20 06:01:38;;;;;;;7.13;3.90;;;6.10;99.90;;;;;;5039386;28;20451;-84
2022/01/20 06:04:06;;;;;;;10.77;2.97;;;6.10;99.90;;;;;;5022097;28;20493;-86
2022/01/20 06:06:35;;;;;;;11.83;2.90;;;6.10;99.90;;;;;;5033094;28;20466;-84
2022/01/20 06:09:04;;;;;;;15.00;3.20;;;6.20;99.90;;;;;;5016777;28;20476;-84
2022/01/20 06:11:32;;;;;;;10.83;2.23;;;6.20;99.90;;;;;;5020304;28;20450;-85
2022/01/20 06:13:59;;;;;;;4.23;2.70;;;6.20;99.90;;;;;;5027582;28;20499;-86
2022/01/20 06:16:26;;;;;;;6.27;2.20;;;6.20;99.90;;;;;;5040461;28;20514;-85
2022/01/20 06:18:53;;;;;;;7.37;2.03;;;6.20;99.90;;;;;;5042315;28;20446;-85
2022/01/20 06:21:20;;;;;;;4.57;1.73;;;6.20;99.90;;;;;;5041210;28;20487;-85
2022/01/20 06:23:48;;;;;;;8.40;2.70;;;6.20;99.90;;;;;;5030396;28;20492;-83
2022/01/20 06:26:14;;;;;;;8.60;1.70;;;6.20;99.90;;;;;;5037055;28;20470;-85
2022/01/20 06:28:41;;;;;;;7.40;1.70;;;6.20;99.90;;;;;;5040281;28;20459;-85
2022/01/20 06:31:09;;;;;;;6.13;2.00;;;6.20;99.90;;;;;;5041375;28;20457;-83
2022/01/20 06:33:37;;;;;;;2.73;1.50;;;6.10;99.90;;;;;;5017692;28;20505;-85
2022/01/20 06:36:05;;;;;;;6.90;1.80;;;6.10;99.90;;;;;;5035394;28;20872;-85
2022/01/20 06:38:39;;;;;;;3.73;2.00;;;6.10;99.90;;;;;;5037671;28;20543;-85
2022/01/20 06:41:06;;;;;;;6.00;1.70;;;6.00;99.90;;;;;;5024442;28;20453;-85
2022/01/20 06:43:40;;;;;;;4.50;1.90;;;6.00;99.90;;;;;;5020640;28;20915;-86
2022/01/20 06:46:14;;;;;;;2.73;2.00;;;5.90;99.90;;;;;;5047739;28;20488;-85
2022/01/20 06:48:41;;;;;;;3.97;1.47;;;5.90;99.90;;;;;;5040085;28;20434;-85
2022/01/20 06:51:10;;;;;;;5.53;1.50;;;6.00;99.90;;;;;;5041236;28;20447;-85
2022/01/20 06:56:04;;;;;;;5.27;1.50;;;5.80;99.90;;;;;;5040594;28;20480;-82
2022/01/20 06:58:32;;;;;;;3.53;1.80;;;5.90;99.90;;;;;;5042245;28;20451;-82
2022/01/20 07:00:59;;;;;;;4.90;1.80;;;5.90;99.90;;;;;;5039541;28;20463;-83
2022/01/20 07:03:26;;;;;;;3.90;1.63;;;5.90;99.90;;;;;;4990140;28;20465;-84
2022/01/20 07:05:53;;;;;;;3.33;1.30;;;5.90;99.90;;;;;;5005314;28;20485;-84
2022/01/20 07:08:20;;;;;;;6.83;1.70;;;5.80;99.90;;;;;;5015973;28;20456;-83
2022/01/20 07:10:47;;;;;;;4.77;2.37;;;5.90;99.90;;;;;;5022439;28;20477;-82
2022/01/20 07:13:14;;;;;;;6.30;1.70;;;5.90;99.90;;;;;;5031129;28;20426;-85
2022/01/20 07:15:41;;;;;;;4.20;1.80;;;5.90;99.90;;;;;;5039941;28;20465;-82
2022/01/20 07:18:08;;;;;;;8.63;1.80;;;5.90;99.90;;;;;;5042316;28;20463;-83
2022/01/20 07:20:38;;;;;;;10.10;2.97;;;5.90;99.90;;;;;;5059459;28;20445;-81
2022/01/20 07:23:08;;;;;;;8.57;1.90;;;5.90;99.90;;;;;;5031888;28;20459;-82
2022/01/20 07:25:35;;;;;;;13.33;2.20;;;6.00;99.90;;;;;;5021349;28;20470;-82
2022/01/20 07:28:02;;;;;;;5.70;1.70;;;6.00;99.90;;;;;;5038978;28;20521;-84
2022/01/20 07:30:31;;;;;;;4.30;2.03;;;5.90;99.90;;;;;;5044440;28;20477;-81
2022/01/20 07:33:02;;;;;;;4.57;1.73;;;6.00;99.90;;;;;;5023253;28;20461;-81
2022/01/20 07:35:33;;;;;;;3.27;1.60;;;5.90;99.90;;;;;;5016371;28;20487;-80
2022/01/20 07:38:04;;;;;;;4.27;2.20;;;5.90;99.90;;;;;;5022547;28;20457;-86
2022/01/20 07:40:32;;;;;;;7.63;2.17;;;6.00;99.90;;;;;;5022188;28;20466;-81
2022/01/20 07:42:59;;;;;;;4.93;1.97;;;6.00;99.90;;;;;;5008271;28;20454;-82
2022/01/20 07:45:27;;;;;;;5.57;2.53;;;6.00;99.90;;;;;;5045037;28;20553;-83
2022/01/20 07:47:53;;;;;;;7.93;2.20;;;5.90;99.90;;;;;;5011412;28;20447;-82
2022/01/20 07:50:22;;;;;;;6.03;2.47;;;6.00;99.90;;;;;;5019665;28;20469;-80
2022/01/20 07:52:49;;;;;;;7.93;2.53;;;5.90;99.90;;;;;;5046491;28;20458;-82
2022/01/20 07:55:16;;;;;;;8.13;2.07;;;6.00;99.90;;;;;;5037724;28;20579;-84
2022/01/20 07:57:43;;;;;;;4.07;2.13;;;6.00;99.90;;;;;;5026409;28;20484;-84
2022/01/20 08:00:10;;;;;;;7.43;2.37;;;6.00;99.90;;;;;;5025072;28;20466;-82
2022/01/20 08:02:37;;;;;;;7.40;2.60;;;6.00;99.90;;;;;;5025984;28;20446;-82
2022/01/20 08:05:04;;;;;;;5.77;1.73;;;6.00;99.90;;;;;;5025424;28;20474;-82
2022/01/20 08:07:31;;;;;;;6.20;2.30;;;6.10;99.90;;;;;;5007171;28;20512;-83
2022/01/20 08:09:58;;;;;;;8.17;2.30;;;6.10;99.90;;;;;;5014737;28;20465;-83
2022/01/20 08:12:26;;;;;;;10.30;2.47;;;6.00;99.90;;;;;;5036582;28;20469;-84
2022/01/20 08:14:53;;;;;;;7.17;2.30;;;5.90;99.90;;;;;;5014621;28;20572;-82
2022/01/20 08:17:34;;;;;;;9.40;2.27;;;6.10;99.90;;;;;;5021284;28;20512;-82
2022/01/20 08:20:01;;;;;;;4.20;2.03;;;6.10;99.90;;;;;;5017188;28;20457;-85
2022/01/20 08:22:31;;;;;;;8.80;1.87;;;6.10;99.90;;;;;;5031399;28;20456;-83
2022/01/20 08:25:07;;;;;;;9.90;1.73;;;6.10;99.90;;;;;;5014100;28;20496;-83
2022/01/20 08:27:36;;;;;;;7.67;2.60;;;6.10;99.90;;;;;;5033773;28;20458;-80
2022/01/20 08:30:05;;;;;;;7.87;2.10;;;6.00;99.90;;;;;;5020005;28;20474;-82
2022/01/20 08:32:32;;;;;;;6.80;1.73;;;6.10;99.90;;;;;;5021602;28;20481;-80
2022/01/20 08:35:04;;;;;;;4.23;1.80;;;6.10;99.90;;;;;;5009578;28;20554;-81
2022/01/20 08:37:30;;;;;;;14.13;4.43;;;6.00;99.90;;;;;;5028993;28;20447;-80
2022/01/20 08:39:57;;;;;;;7.20;1.90;;;6.10;99.90;;;;;;5047840;28;20454;-80
2022/01/20 08:42:24;;;;;;;4.73;1.70;;;6.10;99.90;;;;;;5017184;28;20435;-80
2022/01/20 08:44:51;;;;;;;7.67;2.37;;;6.30;99.90;;;;;;5040184;28;20481;-81
2022/01/20 08:47:20;;;;;;;8.70;1.70;;;6.30;99.90;;;;;;5014125;28;20464;-81
2022/01/20 08:49:49;;;;;;;15.43;3.40;;;6.40;99.90;;;;;;5004818;28;20454;-81
2022/01/20 08:52:17;;;;;;;8.47;2.20;;;6.40;99.90;;;;;;5016151;28;20469;-81
2022/01/20 08:54:46;;;;;;;6.33;2.17;;;6.40;99.90;;;;;;5011101;28;20485;-81
2022/01/20 08:57:14;;;;;;;8.17;2.70;;;6.40;99.90;;;;;;5031429;28;20450;-81
2022/01/20 08:59:43;;;;;;;11.53;2.13;;;6.40;99.90;;;;;;5018407;28;20456;-82
2022/01/20 09:02:11;;;;;;;7.13;2.70;;;6.40;99.90;;;;;;5005411;28;20458;-82
2022/01/20 09:04:38;;;;;;;8.60;2.00;;;6.40;99.90;;;;;;5002576;28;20506;-83
2022/01/20 09:07:05;;;;;;;5.03;1.63;;;6.40;99.90;;;;;;5002595;28;20439;-83
2022/01/20 09:09:39;;;;;;;9.30;2.70;;;6.40;99.90;;;;;;5013224;28;20450;-81
2022/01/20 09:17:32;;;;;;;10.27;2.33;;;6.20;99.90;;;;;;5033887;28;20446;-82
2022/01/20 09:20:00;;;;;;;5.40;2.27;;;6.10;99.90;;;;;;5001626;28;20490;-82
2022/01/20 09:22:29;;;;;;;10.20;2.70;;;6.20;99.90;;;;;;5019236;28;20450;-81
2022/01/20 09:24:56;;;;;;;12.60;2.63;;;6.20;99.90;;;;;;5023269;28;20544;-80
2022/01/20 09:27:23;;;;;;;13.03;2.73;;;6.20;99.90;;;;;;5035621;28;20457;-83
2022/01/20 09:29:50;;;;;;;7.23;2.57;;;6.40;99.90;;;;;;5023341;28;20492;-82
2022/01/20 09:32:19;;;;;;;11.63;3.40;;;6.50;99.90;;;;;;5001294;28;20489;-82
2022/01/20 09:34:46;;;;;;;7.90;1.73;;;6.60;99.90;;;;;;5019022;28;20493;-83
2022/01/20 09:37:13;;;;;;;5.97;2.07;;;6.70;99.90;;;;;;5007969;28;20459;-82
2022/01/20 09:39:40;;;;;;;10.77;2.53;;;6.70;99.90;;;;;;5001669;28;20455;-82
2022/01/20 09:42:08;;;;;;;5.50;3.00;;;6.60;99.90;;;;;;5007780;28;20510;-79
2022/01/20 09:44:35;;;;;;;8.90;2.07;;;6.40;99.90;;;;;;4999626;28;20478;-81
2022/01/20 09:47:03;;;;;;;6.67;2.10;;;6.40;99.90;;;;;;5000838;28;21081;-80
2022/01/20 09:49:29;;;;;;;4.60;1.80;;;6.50;99.90;;;;;;4999824;28;20596;-81
2022/01/20 09:51:57;;;;;;;4.83;1.97;;;6.60;99.90;;;;;;5008628;28;20466;-79
2022/01/20 09:54:23;;;;;;;8.30;2.43;;;6.70;99.90;;;;;;5009325;28;20846;-82
2022/01/20 09:56:50;;;;;;;6.37;1.70;;;6.70;99.90;;;;;;5005975;28;20446;-82
2022/01/20 09:59:17;;;;;;;7.60;2.33;;;6.60;99.90;;;;;;5002640;28;20454;-82
2022/01/20 10:01:49;;;;;;;5.17;1.77;;;6.70;99.90;;;;;;5020030;28;20518;-83
2022/01/20 10:04:19;;;;;;;4.87;2.27;;;6.70;99.90;;;;;;5003128;28;20564;-82
2022/01/20 10:07:01;;;;;;;9.53;1.50;;;6.80;99.10;;;;;;5021926;28;20459;-81
2022/01/20 10:09:35;;;;;;;3.93;1.37;;;6.80;98.10;;;;;;5023841;28;20453;-83
2022/01/20 10:12:04;;;;;;;8.30;3.73;;;6.70;97.50;;;;;;5028948;28;20555;-80
2022/01/20 10:14:49;;;;;;;9.77;5.47;;;6.60;96.90;;;;;;5019418;28;20500;-80
2022/01/20 10:17:22;;;;;;;8.93;4.90;;;7.30;97.20;;;;;;5046292;28;20434;-82
2022/01/20 10:19:58;;;;;;;5.63;2.20;;;7.80;95.20;;;;;;5035445;28;20480;-81
2022/01/20 10:22:25;;;;;;;5.70;1.90;;;7.50;94.20;;;;;;5038473;28;20553;-80
2022/01/20 10:24:58;;;;;;;5.87;1.87;;;7.40;94.30;;;;;;5025058;28;20494;-81
2022/01/20 10:27:24;;;;;;;6.93;2.70;;;7.30;94.70;;;;;;5008226;28;20485;-83
2022/01/20 10:30:02;;;;;;;9.67;1.77;;;7.40;95.00;;;;;;5024468;28;20468;-81
2022/01/20 10:32:40;;;;;;;7.50;1.53;;;7.40;94.50;;;;;;5023299;28;20468;-83
2022/01/20 10:35:07;;;;;;;8.67;1.93;;;7.30;94.80;;;;;;5031931;28;20469;-83
2022/01/20 10:37:34;;;;;;;6.20;1.77;;;7.30;94.70;;;;;;5010474;28;20458;-82
2022/01/20 10:40:13;;;;;;;4.97;1.70;;;7.20;94.80;;;;;;5034893;28;20459;-83
2022/01/20 10:42:45;;;;;;;7.60;1.80;;;7.20;95.10;;;;;;5033682;28;20441;-83
2022/01/20 10:45:24;;;;;;;6.03;1.57;;;7.10;94.80;;;;;;5037246;28;20755;-82
2022/01/20 10:47:54;;;;;;;9.97;2.43;;;7.10;94.70;;;;;;5037775;28;20454;-81
2022/01/20 10:50:28;;;;;;;8.13;1.90;;;7.00;95.10;;;;;;5015807;28;20454;-81
2022/01/20 10:52:56;;;;;;;4.10;1.53;;;7.00;95.30;;;;;;5028004;28;20451;-83
2022/01/20 10:55:25;;;;;;;2.30;1.20;;;7.10;95.10;;;;;;5025008;28;20545;-82
2022/01/20 10:57:57;;;;;;;9.40;1.63;;;7.10;94.80;;;;;;5024778;28;20481;-81
2022/01/20 11:00:25;;;;;;;7.00;1.57;;;6.80;94.70;;;;;;5016246;28;20458;-81
2022/01/20 11:02:55;;;;;;;7.13;2.00;;;6.70;95.00;;;;;;5024019;28;20462;-84
2022/01/20 11:05:23;;;;;;;7.60;2.10;;;6.70;95.50;;;;;;5023533;28;20491;-82
2022/01/20 11:07:52;;;;;;;8.27;2.33;;;7.00;95.60;;;;;;5037551;28;20665;-80
2022/01/20 11:10:19;;;;;;;6.30;2.00;;;7.10;95.00;;;;;;5021982;28;20520;-81
2022/01/20 11:12:46;;;;;;;4.87;1.70;;;7.20;95.00;;;;;;5018931;28;20450;-81
2022/01/20 11:15:16;;;;;;;6.37;2.20;;;7.10;94.60;;;;;;5033576;28;20482;-82
2022/01/20 11:17:44;;;;;;;11.23;1.97;;;7.10;94.50;;;;;;5021249;28;20438;-83
2022/01/20 11:20:17;;;;;;;4.27;1.90;;;7.50;94.20;;;;;;5022735;28;20467;-82
2022/01/20 11:22:59;;;;;;;4.50;1.67;;;7.30;93.70;;;;;;5033194;28;20451;-81
2022/01/20 11:25:28;;;;;;;6.93;2.00;;;7.10;93.50;;;;;;5009644;28;20503;-81
2022/01/20 11:28:15;;;;;;;5.20;1.70;;;7.10;93.80;;;;;;5018560;28;20527;-81
2022/01/20 11:31:04;;;;;;;6.23;1.60;;;7.00;94.00;;;;;;5043270;28;20812;-82
2022/01/20 11:33:39;;;;;;;5.63;1.93;;;6.90;94.30;;;;;;5022291;28;20458;-83
2022/01/20 11:36:09;;;;;;;4.10;1.83;;;6.90;94.50;;;;;;5005026;28;20478;-84
2022/01/20 11:38:50;;;;;;;6.03;1.83;;;6.90;94.50;;;;;;5021636;28;20426;-82
2022/01/20 11:41:17;;;;;;;4.80;1.63;;;6.80;94.30;;;;;;5003929;28;20928;-83
2022/01/20 11:43:46;;;;;;;6.40;1.80;;;6.80;93.70;;;;;;5023848;28;20443;-81
2022/01/20 11:46:16;;;;;;;4.80;2.17;;;6.80;94.10;;;;;;5015419;28;20469;-83
2022/01/20 11:49:06;;;;;;;6.93;1.90;;;6.80;94.10;;;;;;5020947;28;20457;-80
2022/01/20 11:51:56;;;;;;;5.50;1.80;;;6.90;94.40;;;;;;5002995;28;20855;-81
2022/01/20 11:54:39;;;;;;;3.20;1.60;;;6.80;94.80;;;;;;5020238;28;20485;-80
2022/01/20 11:57:08;;;;;;;7.10;2.07;;;6.70;95.50;;;;;;5001825;28;20431;-81
2022/01/20 11:59:41;;;;;;;6.47;3.07;;;6.70;96.20;;;;;;5018489;28;20463;-83
2022/01/20 12:02:08;;;;;;;9.80;2.20;;;6.70;96.50;;;;;;5020598;28;20456;-82
2022/01/20 12:04:41;;;;;;;8.27;1.70;;;6.60;96.60;;;;;;5046085;28;20545;-83
2022/01/20 12:07:09;;;;;;;8.70;2.53;;;6.60;96.50;;;;;;5036829;28;20454;-81
2022/01/20 12:09:38;;;;;;;7.07;2.13;;;6.60;96.70;;;;;;5021630;28;20478;-83
2022/01/20 12:12:17;;;;;;;5.60;2.30;;;6.60;96.50;;;;;;5027889;28;20540;-81
2022/01/20 12:14:45;;;;;;;5.67;1.93;;;6.60;96.60;;;;;;5040323;28;21007;-82
2022/01/20 12:17:17;;;;;;;5.23;1.90;;;6.60;96.60;;;;;;5043436;28;20441;-81
2022/01/20 12:19:54;;;;;;;2.00;1.50;;;6.50;95.80;;;;;;5018475;28;20522;-82
2022/01/20 12:22:22;;;;;;;4.57;1.47;;;6.50;95.80;;;;;;5003699;28;20680;-82
2022/01/20 12:24:53;;;;;;;5.03;2.00;;;6.60;96.00;;;;;;5020913;28;20492;-81
2022/01/20 12:27:22;;;;;;;5.00;2.47;;;6.70;96.20;;;;;;5012995;28;20888;-81
2022/01/20 12:29:49;;;;;;;5.27;2.63;;;6.80;96.10;;;;;;5018868;28;20525;-80
2022/01/20 12:32:19;;;;;;;5.37;2.43;;;6.80;95.80;;;;;;5044387;28;20462;-81
2022/01/20 12:35:00;;;;;;;5.03;1.90;;;6.80;95.70;;;;;;5040339;28;20548;-79
2022/01/20 12:37:38;;;;;;;5.20;1.87;;;6.90;95.60;;;;;;5035345;28;20478;-81
2022/01/20 12:40:16;;;;;;;5.40;2.20;;;6.90;95.30;;;;;;5017274;28;20449;-80
2022/01/20 12:42:44;;;;;;;6.90;3.03;;;6.90;95.10;;;;;;5023386;28;20577;-85
2022/01/20 12:48:16;;;;;;;7.30;2.20;;;7.00;95.20;;;;;;5038800;28;20609;-85
2022/01/20 12:51:06;;;;;;;7.97;2.47;;;7.00;95.30;;;;;;5018941;28;20462;-85
2022/01/20 12:53:55;;;;;;;8.80;2.03;;;7.00;95.40;;;;;;5037641;28;21895;-84
2022/01/20 12:56:50;;;;;;;5.10;2.13;;;6.90;95.20;;;;;;5018724;28;20477;-84
2022/01/20 13:02:52;;;;;;;10.47;4.03;;;7.10;95.80;;;;;;5031102;28;20453;-86
2022/01/20 13:05:46;;;;;;;10.67;2.83;;;7.40;95.10;;;;;;5015070;28;20485;-85
2022/01/20 13:08:38;;;;;;;8.70;2.10;;;7.30;94.90;;;;;;5015495;28;20452;-86
2022/01/20 13:14:55;;;;;;;7.67;1.93;;;7.10;94.90;;;;;;5027079;28;20481;-86
2022/01/20 13:17:31;;;;;;;4.90;2.00;;;7.10;94.50;;;;;;5017034;28;20492;-85
2022/01/20 13:24:02;;;;;;;3.73;1.87;;;7.10;94.00;;;;;;5028756;28;20438;-86
2022/01/20 13:27:01;;;;;;;8.20;1.70;;;7.10;93.50;;;;;;5019591;28;21361;-85
2022/01/20 13:30:07;;;;;;;7.73;2.53;;;7.00;93.60;;;;;;5009576;28;20462;-83
2022/01/20 13:32:55;;;;;;;2.60;2.03;;;7.00;93.80;;;;;;5011905;28;20455;-84
2022/01/20 13:35:51;;;;;;;9.83;2.40;;;7.00;94.10;;;;;;5012430;28;20476;-84
2022/01/20 13:39:22;;;;;;;11.80;3.30;;;7.00;94.20;;;;;;5020992;28;20449;-84
2022/01/20 13:45:26;;;;;;;9.50;2.33;;;7.00;93.70;;;;;;5037457;28;20484;-85
2022/01/20 13:48:27;;;;;;;4.10;1.60;;;7.00;93.40;;;;;;5020809;28;20521;-87
2022/01/20 13:51:06;;;;;;;10.63;2.53;;;7.10;93.40;;;;;;5028401;28;20974;-85
2022/01/20 13:59:04;;;;;;;10.20;2.43;;;7.00;92.90;;;;;;5058256;28;20846;-83
2022/01/20 14:05:46;;;;;;;6.07;2.17;;;7.40;94.60;;;;;;5062073;28;20472;-84
2022/01/20 14:08:58;;;;;;;;;;;;;;;;;;;;;
2022/01/20 14:11:54;;;;;;;7.63;1.93;;;7.30;96.10;;;;;;5061210;28;21053;-86
2022/01/20 14:14:48;;;;;;;6.23;1.80;;;6.90;97.00;;;;;;5041312;28;20478;-85
2022/01/20 14:21:15;;;;;;;10.97;7.30;;;7.00;97.60;;;;;;4992550;28;20435;-84
2022/01/20 14:24:00;;;;;;;8.40;2.17;;;7.10;97.60;;;;;;4985564;28;20462;-83
2022/01/20 14:26:48;;;;;;;4.43;1.60;;;7.10;97.20;;;;;;5001201;28;20503;-84
2022/01/20 14:29:18;;;;;;;10.37;1.93;;;7.10;96.90;;;;;;5003935;28;21050;-84
2022/01/20 14:31:48;;;;;;;9.10;3.00;;;7.00;96.70;;;;;;5019859;28;20454;-83
2022/01/20 14:34:21;;;;;;;7.27;2.00;;;6.90;96.70;;;;;;5005439;28;20484;-84
2022/01/20 14:36:51;;;;;;;3.63;1.40;;;6.90;96.50;;;;;;5024915;28;20540;-85
2022/01/20 14:39:26;;;;;;;5.73;2.00;;;6.90;96.00;;;;;;5024520;28;20812;-86
2022/01/20 14:42:10;;;;;;;4.70;1.53;;;6.70;96.00;;;;;;5026325;28;20586;-83
2022/01/20 14:45:04;;;;;;;;;;;;;;;;;;;;;
2022/01/20 14:47:51;;;;;;;9.13;2.30;;;6.80;95.80;;;;;;5017085;28;20446;-86